sensor_id;sensor_type;location;lat;lon;timestamp;temperature;humidity
31687;DHT22;18285;51.330;4.946;2024-01-06T00:02:44;23.70;38.50
31687;DHT22;18285;51.330;4.946;2024-01-06T00:26:54;23.60;38.70
31687;DHT22;18285;51.330;4.946;2024-01-06T00:51:06;23.50;38.90
31687;DHT22;18285;51.330;4.946;2024-01-06T01:15:17;23.50;39.00
31687;DHT22;18285;51.330;4.946;2024-01-06T01:39:27;23.60;38.10
31687;DHT22;18285;51.330;4.946;2024-01-06T02:03:41;23.60;38.40
31687;DHT22;18285;51.330;4.946;2024-01-06T02:27:51;23.60;38.00
31687;DHT22;18285;51.330;4.946;2024-01-06T02:52:02;23.50;38.10
31687;DHT22;18285;51.330;4.946;2024-01-06T03:16:13;23.60;37.40
31687;DHT22;18285;51.330;4.946;2024-01-06T03:40:23;23.50;37.10
31687;DHT22;18285;51.330;4.946;2024-01-06T04:04:34;23.50;36.70
31687;DHT22;18285;51.330;4.946;2024-01-06T04:28:45;23.50;35.90
31687;DHT22;18285;51.330;4.946;2024-01-06T04:52:56;23.50;36.30
31687;DHT22;18285;51.330;4.946;2024-01-06T05:17:06;23.50;36.20
31687;DHT22;18285;51.330;4.946;2024-01-06T05:41:17;23.40;36.50
31687;DHT22;18285;51.330;4.946;2024-01-06T06:05:27;23.50;35.40
31687;DHT22;18285;51.330;4.946;2024-01-06T06:29:38;23.50;35.80
31687;DHT22;18285;51.330;4.946;2024-01-06T06:53:49;23.40;35.80
31687;DHT22;18285;51.330;4.946;2024-01-06T07:17:59;23.40;35.70
31687;DHT22;18285;51.330;4.946;2024-01-06T07:42:10;23.40;35.80
31687;DHT22;18285;51.330;4.946;2024-01-06T08:06:21;23.40;35.60
31687;DHT22;18285;51.330;4.946;2024-01-06T08:30:32;23.40;35.50
31687;DHT22;18285;51.330;4.946;2024-01-06T08:54:42;23.40;34.40
31687;DHT22;18285;51.330;4.946;2024-01-06T09:18:53;23.40;34.60
31687;DHT22;18285;51.330;4.946;2024-01-06T09:43:03;23.40;34.10
31687;DHT22;18285;51.330;4.946;2024-01-06T10:07:14;23.40;34.40
31687;DHT22;18285;51.330;4.946;2024-01-06T10:31:25;23.40;34.80
31687;DHT22;18285;51.330;4.946;2024-01-06T10:55:37;23.50;35.10
31687;DHT22;18285;51.330;4.946;2024-01-06T11:19:48;23.40;35.00
31687;DHT22;18285;51.330;4.946;2024-01-06T11:44:02;23.40;34.20
31687;DHT22;18285;51.330;4.946;2024-01-06T12:08:13;23.30;34.30
31687;DHT22;18285;51.330;4.946;2024-01-06T12:32:23;23.30;34.50
31687;DHT22;18285;51.330;4.946;2024-01-06T12:56:35;23.40;33.20
31687;DHT22;18285;51.330;4.946;2024-01-06T13:45:02;23.40;32.60
31687;DHT22;18285;51.330;4.946;2024-01-06T14:09:14;23.40;32.90
31687;DHT22;18285;51.330;4.946;2024-01-06T14:33:24;23.30;33.20
31687;DHT22;18285;51.330;4.946;2024-01-06T14:57:35;23.40;34.20
31687;DHT22;18285;51.330;4.946;2024-01-06T15:21:46;23.30;33.50
31687;DHT22;18285;51.330;4.946;2024-01-06T15:45:58;23.40;32.80
31687;DHT22;18285;51.330;4.946;2024-01-06T16:10:09;23.30;33.30
31687;DHT22;18285;51.330;4.946;2024-01-06T16:34:25;23.30;33.50
31687;DHT22;18285;51.330;4.946;2024-01-06T16:58:35;23.40;34.00
31687;DHT22;18285;51.330;4.946;2024-01-06T17:22:46;23.30;36.00
31687;DHT22;18285;51.330;4.946;2024-01-06T17:46:57;23.50;35.70
31687;DHT22;18285;51.330;4.946;2024-01-06T18:11:08;23.50;36.60
31687;DHT22;18285;51.330;4.946;2024-01-06T18:35:18;23.50;35.90
31687;DHT22;18285;51.330;4.946;2024-01-06T18:59:29;23.50;35.90
31687;DHT22;18285;51.330;4.946;2024-01-06T19:23:40;23.50;36.00
31687;DHT22;18285;51.330;4.946;2024-01-06T19:47:51;23.50;36.40
31687;DHT22;18285;51.330;4.946;2024-01-06T20:12:02;23.50;36.70
31687;DHT22;18285;51.330;4.946;2024-01-06T20:36:12;24.00;35.80
31687;DHT22;18285;51.330;4.946;2024-01-06T21:00:24;24.40;35.70
31687;DHT22;18285;51.330;4.946;2024-01-06T21:24:35;24.70;34.50
31687;DHT22;18285;51.330;4.946;2024-01-06T21:48:46;24.90;35.40
31687;DHT22;18285;51.330;4.946;2024-01-06T22:12:57;25.20;33.30
31687;DHT22;18285;51.330;4.946;2024-01-06T22:37:08;25.20;33.70
31687;DHT22;18285;51.330;4.946;2024-01-06T23:01:18;25.30;32.10
31687;DHT22;18285;51.330;4.946;2024-01-06T23:25:29;25.20;31.60
31687;DHT22;18285;51.330;4.946;2024-01-06T23:49:40;25.40;32.10
